Time;durP1;ratioP1;P1;durP2;ratioP2;P2;SDS_P1;SDS_P2;PMS_P1;PMS_P2;Temp;Humidity;BMP_temperature;BMP_pressure;BME280_temperature;BME280_humidity;BME280_pressure;Samples;Min_cycle;Max_cycle;Signal;HPM_P1;HPM_P2
2021/11/22 00:02:21;;;;;;;1999.90;999.90;;;;;;;1.65;61.13;101139.75;4885676;28;97934;-76
2021/11/22 00:04:49;;;;;;;1999.90;999.90;;;;;;;1.63;61.26;101136.16;4903147;28;97643;-75
2021/11/22 00:07:19;;;;;;;1999.90;999.90;;;;;;;1.63;61.01;101144.03;4885016;28;101869;-75
2021/11/22 00:09:47;;;;;;;1999.90;999.90;;;;;;;1.63;61.26;101148.38;4885498;28;96928;-75
2021/11/22 00:12:15;;;;;;;1999.90;999.90;;;;;;;1.65;61.20;101145.00;4886343;28;97348;-75
2021/11/22 00:14:44;;;;;;;1999.90;999.90;;;;;;;1.66;61.16;101153.78;4900910;28;100100;-76
2021/11/22 00:17:13;;;;;;;1999.90;999.90;;;;;;;1.65;61.53;101150.25;4902830;28;98966;-75
2021/11/22 00:19:41;;;;;;;1999.90;999.90;;;;;;;1.64;61.52;101153.69;4902392;28;96832;-77
2021/11/22 00:22:09;;;;;;;1999.90;999.90;;;;;;;1.64;60.96;101153.69;4903127;28;97479;-74
2021/11/22 00:24:39;;;;;;;1999.90;999.90;;;;;;;1.63;60.66;101151.00;4902800;28;98124;-74
2021/11/22 00:27:07;;;;;;;1999.90;999.90;;;;;;;1.64;60.97;101158.94;4902420;28;98113;-76
2021/11/22 00:29:35;;;;;;;1999.90;999.90;;;;;;;1.70;61.53;101158.44;4903740;28;97903;-75
2021/11/22 00:32:44;;;;;;;1999.90;999.90;;;;;;;1.72;61.26;101160.34;4884459;28;97812;-76
2021/11/22 00:35:32;;;;;;;1999.90;999.90;;;;;;;1.75;61.17;101171.03;4883883;28;98751;-76
2021/11/22 00:38:02;;;;;;;1999.90;999.90;;;;;;;1.77;61.00;101177.28;4881456;28;99457;-77
2021/11/22 00:40:32;;;;;;;1999.90;999.90;;;;;;;1.75;61.04;101173.66;4888231;28;98003;-75
2021/11/22 00:43:01;;;;;;;1999.90;999.90;;;;;;;1.76;60.97;101183.31;4887931;28;97853;-75
2021/11/22 00:45:30;;;;;;;1999.90;999.90;;;;;;;1.76;61.28;101191.19;4887678;28;98133;-78
2021/11/22 00:47:59;;;;;;;1999.90;999.90;;;;;;;1.72;61.42;101194.44;4888407;28;101716;-77
2021/11/22 00:50:27;;;;;;;1999.90;999.90;;;;;;;1.69;61.08;101198.59;4895190;28;98033;-74
2021/11/22 00:52:56;;;;;;;1999.90;999.90;;;;;;;1.66;61.74;101195.75;4904214;28;97059;-75
2021/11/22 00:55:24;;;;;;;1999.90;999.90;;;;;;;1.66;61.61;101204.53;4905335;28;98915;-78
2021/11/22 00:57:54;;;;;;;1999.90;999.90;;;;;;;1.66;61.17;101204.53;4906008;28;97715;-74
2021/11/22 01:00:23;;;;;;;1999.90;999.90;;;;;;;1.69;61.17;101206.47;4906074;28;96916;-77
2021/11/22 01:02:51;;;;;;;1999.90;999.90;;;;;;;1.68;61.41;101221.28;4905875;28;96976;-76
2021/11/22 01:05:19;;;;;;;1999.90;999.90;;;;;;;1.65;61.15;101213.19;4904490;28;97812;-75
2021/11/22 01:07:47;;;;;;;1999.90;999.90;;;;;;;1.67;61.01;101221.19;4904450;28;99562;-74
2021/11/22 01:10:16;;;;;;;1999.90;999.90;;;;;;;1.69;61.49;101219.59;4887288;28;98151;-75
2021/11/22 01:12:46;;;;;;;1999.90;999.90;;;;;;;1.70;61.13;101224.91;4905266;28;97536;-75
2021/11/22 01:15:19;;;;;;;1999.90;999.90;;;;;;;1.70;61.32;101237.13;4905082;28;97617;-76
2021/11/22 01:17:49;;;;;;;1999.90;999.90;;;;;;;1.70;60.88;101243.28;4888550;28;100366;-72
2021/11/22 01:20:20;;;;;;;1999.90;999.90;;;;;;;1.72;60.91;101256.50;4890180;28;97841;-73
2021/11/22 01:22:49;;;;;;;1999.90;999.90;;;;;;;1.71;60.56;101263.44;4905890;28;97279;-75
2021/11/22 01:25:17;;;;;;;1999.90;999.90;;;;;;;1.70;61.54;101263.34;4904975;28;97871;-73
2021/11/22 01:27:47;;;;;;;1999.90;999.90;;;;;;;1.71;61.39;101260.81;4904697;28;97768;-73
2021/11/22 01:30:17;;;;;;;1999.90;999.90;;;;;;;1.71;60.96;101262.53;4899996;28;98309;-76
2021/11/22 01:32:47;;;;;;;1999.90;999.90;;;;;;;1.72;61.30;101273.16;4871524;28;97304;-75
2021/11/22 01:35:16;;;;;;;1999.90;999.90;;;;;;;1.71;61.05;101273.94;4887064;28;99816;-77
2021/11/22 01:37:46;;;;;;;1999.90;999.90;;;;;;;1.71;60.85;101275.66;4904966;28;99278;-74
2021/11/22 01:40:17;;;;;;;1999.90;999.90;;;;;;;1.71;60.84;101275.66;4888058;28;97257;-75
2021/11/22 01:42:45;;;;;;;1999.90;999.90;;;;;;;1.70;61.14;101281.72;4904660;28;97137;-76
2021/11/22 01:45:15;;;;;;;1999.90;999.90;;;;;;;1.69;61.20;101283.41;4904139;28;97773;-76
2021/11/22 01:47:45;;;;;;;1999.90;999.90;;;;;;;1.67;60.93;101292.03;4904481;28;99484;-74
2021/11/22 01:50:16;;;;;;;1999.90;999.90;;;;;;;1.64;60.97;101294.44;4891963;28;97226;-77
2021/11/22 01:52:44;;;;;;;1999.90;999.90;;;;;;;1.65;61.12;101298.88;4905442;28;96882;-75
2021/11/22 01:55:18;;;;;;;1999.90;999.90;;;;;;;1.64;61.39;101299.66;4887385;28;97113;-75
2021/11/22 01:57:47;;;;;;;1999.90;999.90;;;;;;;1.61;60.90;101299.47;4904492;28;97809;-77
2021/11/22 02:00:18;;;;;;;1999.90;999.90;;;;;;;1.59;61.43;101309.88;4904684;28;98937;-77
2021/11/22 02:02:48;;;;;;;1999.90;999.90;;;;;;;1.60;61.30;101310.81;4904820;28;97058;-77
2021/11/22 02:05:17;;;;;;;1999.90;999.90;;;;;;;1.60;61.74;101311.69;4888616;28;98665;-75
2021/11/22 02:07:45;;;;;;;1999.90;999.90;;;;;;;1.60;61.51;101311.69;4890759;28;99532;-73
2021/11/22 02:10:14;;;;;;;1999.90;999.90;;;;;;;1.62;61.42;101311.78;4872552;28;97414;-77
2021/11/22 02:12:43;;;;;;;1999.90;999.90;;;;;;;1.64;60.78;101316.31;4904467;28;98844;-74
2021/11/22 02:15:12;;;;;;;1999.90;999.90;;;;;;;1.63;61.03;101317.16;4904619;28;99264;-74
2021/11/22 02:17:43;;;;;;;1999.90;999.90;;;;;;;1.66;61.06;101319.97;4880215;28;98559;-73
2021/11/22 02:20:15;;;;;;;1999.90;999.90;;;;;;;1.66;61.77;101321.66;4906441;28;97720;-74
2021/11/22 02:22:45;;;;;;;1999.90;999.90;;;;;;;1.68;61.19;101328.84;4888814;28;97782;-73
2021/11/22 02:25:15;;;;;;;1999.90;999.90;;;;;;;1.70;60.72;101331.56;4904502;28;97474;-74
2021/11/22 02:27:45;;;;;;;1999.90;999.90;;;;;;;1.72;60.44;101324.69;4873603;28;99848;-73
2021/11/22 02:30:15;;;;;;;1999.90;999.90;;;;;;;1.74;61.20;101329.25;4893378;28;96762;-73
2021/11/22 02:32:44;;;;;;;1999.90;999.90;;;;;;;1.76;61.15;101334.59;4884544;28;97887;-75
2021/11/22 02:35:16;;;;;;;1999.90;999.90;;;;;;;1.75;60.83;101338.91;4918026;28;99254;-74
2021/11/22 02:37:44;;;;;;;1999.90;999.90;;;;;;;1.77;61.22;101341.63;4917833;28;98009;-75
2021/11/22 02:40:13;;;;;;;1999.90;999.90;;;;;;;1.73;61.22;101348.41;4918033;28;97070;-75
2021/11/22 02:42:45;;;;;;;1999.90;999.90;;;;;;;1.74;60.47;101350.25;4906885;28;97112;-75
2021/11/22 02:45:14;;;;;;;1999.90;999.90;;;;;;;1.75;60.91;101354.66;4914041;28;98081;-74
2021/11/22 02:47:43;;;;;;;1999.90;999.90;;;;;;;1.77;61.34;101357.38;4912669;28;97491;-74
2021/11/22 02:50:12;;;;;;;1999.90;999.90;;;;;;;1.77;61.40;101362.63;4910973;28;97434;-75
2021/11/22 02:52:42;;;;;;;1999.90;999.90;;;;;;;1.76;61.12;101356.47;4890080;28;97189;-76
2021/11/22 02:55:12;;;;;;;1999.90;999.90;;;;;;;1.77;61.15;101358.28;4886552;28;99323;-75
2021/11/22 02:57:40;;;;;;;1999.90;999.90;;;;;;;1.80;60.87;101366.34;4903997;28;97961;-75
2021/11/22 03:00:13;;;;;;;1999.90;999.90;;;;;;;1.79;60.69;101369.81;4904044;28;97535;-74
2021/11/22 03:02:42;;;;;;;1999.90;999.90;;;;;;;1.80;61.36;101378.56;4890806;28;96867;-76
2021/11/22 03:05:11;;;;;;;1999.90;999.90;;;;;;;1.81;61.07;101378.69;4887746;28;100722;-77
2021/11/22 03:07:40;;;;;;;1999.90;999.90;;;;;;;1.82;61.12;101380.47;4903335;28;100915;-73
2021/11/22 03:10:12;;;;;;;1999.90;999.90;;;;;;;1.84;60.90;101388.44;4902769;28;96930;-75
2021/11/22 03:12:40;;;;;;;1999.90;999.90;;;;;;;1.85;61.08;101401.66;4902139;28;96748;-76
2021/11/22 03:15:12;;;;;;;1999.90;999.90;;;;;;;1.87;60.59;101404.41;4886326;28;99513;-74
2021/11/22 03:17:40;;;;;;;1999.90;999.90;;;;;;;1.87;61.04;101407.94;4871447;28;99853;-76
2021/11/22 03:20:10;;;;;;;1999.90;999.90;;;;;;;1.88;60.64;101406.22;4904359;28;97902;-76
2021/11/22 03:22:39;;;;;;;1999.90;999.90;;;;;;;1.88;60.82;101416.72;4905316;28;98007;-75
2021/11/22 03:25:11;;;;;;;1999.90;999.90;;;;;;;1.88;61.37;101420.25;4884014;28;99859;-72
2021/11/22 03:27:40;;;;;;;1999.90;999.90;;;;;;;1.89;60.54;101426.44;4901910;28;97722;-74
2021/11/22 03:30:10;;;;;;;1999.90;999.90;;;;;;;1.90;61.43;101426.53;4887886;28;97942;-75
2021/11/22 03:32:38;;;;;;;1999.90;999.90;;;;;;;1.91;60.89;101427.41;4884055;28;97247;-75
2021/11/22 03:35:07;;;;;;;1999.90;999.90;;;;;;;1.90;60.62;101434.38;4884934;28;100983;-75
2021/11/22 03:37:36;;;;;;;1999.90;999.90;;;;;;;1.90;60.73;101447.50;4870307;28;98855;-75
2021/11/22 03:40:05;;;;;;;1999.90;999.90;;;;;;;1.93;60.49;101441.53;4903422;28;97482;-75
2021/11/22 03:42:40;;;;;;;1999.90;999.90;;;;;;;1.91;60.74;101444.06;4903225;28;98770;-75
2021/11/22 03:45:10;;;;;;;1999.90;999.90;;;;;;;1.93;60.97;101444.16;4902831;28;97796;-76
2021/11/22 03:47:40;;;;;;;1999.90;999.90;;;;;;;1.91;60.83;101454.56;4890035;28;101178;-75
2021/11/22 03:50:09;;;;;;;1999.90;999.90;;;;;;;1.92;60.60;101450.22;4892395;28;96908;-72
2021/11/22 03:52:37;;;;;;;1999.90;999.90;;;;;;;1.92;60.87;101458.09;4886862;28;98122;-76
2021/11/22 03:55:05;;;;;;;1999.90;999.90;;;;;;;1.92;60.83;101463.34;4890657;28;100515;-75
2021/11/22 03:57:35;;;;;;;1999.90;999.90;;;;;;;1.93;61.17;101465.16;4902483;28;97381;-76
2021/11/22 04:00:05;;;;;;;1999.90;999.90;;;;;;;1.94;60.79;101467.00;4903060;28;96967;-75
2021/11/22 04:02:35;;;;;;;1999.90;999.90;;;;;;;1.91;61.29;101475.56;4903529;28;97345;-74
2021/11/22 04:05:04;;;;;;;1999.90;999.90;;;;;;;1.93;60.77;101476.56;4886553;28;98593;-78
2021/11/22 04:07:32;;;;;;;1999.90;999.90;;;;;;;1.93;60.86;101478.28;4907112;28;97960;-75
2021/11/22 04:10:00;;;;;;;1999.90;999.90;;;;;;;1.92;60.98;101485.25;4906402;28;97638;-75
2021/11/22 04:12:28;;;;;;;1999.90;999.90;;;;;;;1.92;60.83;101485.25;4905092;28;97907;-75
2021/11/22 04:14:58;;;;;;;1999.90;999.90;;;;;;;1.91;61.58;101493.94;4889284;28;99629;-74
2021/11/22 04:17:26;;;;;;;1999.90;999.90;;;;;;;1.90;61.63;101489.50;4893842;28;98518;-74
2021/11/22 04:19:54;;;;;;;1999.90;999.90;;;;;;;1.89;61.06;101494.66;4889025;28;96981;-71
2021/11/22 04:22:23;;;;;;;1999.90;999.90;;;;;;;1.88;61.21;101500.69;4905535;28;96734;-75
2021/11/22 04:24:51;;;;;;;1999.90;999.90;;;;;;;1.87;61.04;101509.38;4886849;28;101088;-76
2021/11/22 04:27:19;;;;;;;1999.90;999.90;;;;;;;1.85;61.52;101513.63;4872550;28;100712;-74
2021/11/22 04:29:49;;;;;;;1999.90;999.90;;;;;;;1.84;61.22;101514.41;4905014;28;96855;-73
2021/11/22 04:32:19;;;;;;;1999.90;999.90;;;;;;;1.81;61.20;101530.88;4907214;28;97674;-74
2021/11/22 04:34:47;;;;;;;1999.90;999.90;;;;;;;1.80;61.04;101526.41;4906162;28;98863;-75
2021/11/22 04:37:17;;;;;;;1999.90;999.90;;;;;;;1.80;61.34;101534.28;4890412;28;100372;-73
2021/11/22 04:39:45;;;;;;;1999.90;999.90;;;;;;;1.78;60.68;101530.63;4906078;28;97397;-74
2021/11/22 04:42:13;;;;;;;1999.90;999.90;;;;;;;1.77;61.61;101531.44;4873518;28;97016;-75
2021/11/22 04:44:41;;;;;;;1999.90;999.90;;;;;;;1.78;60.80;101535.00;4896637;28;99678;-73
2021/11/22 04:47:12;;;;;;;1999.90;999.90;;;;;;;1.76;61.05;101542.75;4906037;28;99003;-76
2021/11/22 04:49:42;;;;;;;1999.90;999.90;;;;;;;1.70;60.70;101546.66;4889083;28;97312;-71
2021/11/22 04:52:10;;;;;;;1999.90;999.90;;;;;;;1.66;61.37;101548.19;4894771;28;98197;-74
2021/11/22 04:54:39;;;;;;;1999.90;999.90;;;;;;;1.65;61.52;101553.31;4904731;28;97908;-77
2021/11/22 04:57:07;;;;;;;1999.90;999.90;;;;;;;1.66;61.48;101561.28;4906350;28;97797;-77
2021/11/22 04:59:37;;;;;;;1999.90;999.90;;;;;;;1.68;61.28;101562.31;4888192;28;97333;-75
2021/11/22 05:02:07;;;;;;;1999.90;999.90;;;;;;;1.68;61.45;101567.56;4889466;28;97474;-74
2021/11/22 05:04:36;;;;;;;1999.90;999.90;;;;;;;1.68;60.79;101567.56;4903558;28;98510;-73
2021/11/22 05:07:16;;;;;;;1999.90;999.90;;;;;;;1.70;61.19;101568.56;4903770;28;99306;-76
2021/11/22 05:09:46;;;;;;;1999.90;999.90;;;;;;;1.70;61.41;101568.56;4887330;28;97123;-75
2021/11/22 05:12:14;;;;;;;1999.90;999.90;;;;;;;1.69;61.07;101571.09;4872811;28;97471;-75
2021/11/22 05:14:46;;;;;;;1999.90;999.90;;;;;;;1.69;61.29;101578.97;4898491;28;97637;-75
2021/11/22 05:17:14;;;;;;;1999.90;999.90;;;;;;;1.69;60.94;101581.59;4901099;28;97668;-73
2021/11/22 05:19:42;;;;;;;1999.90;999.90;;;;;;;1.69;61.54;101582.47;4887018;28;97997;-73
2021/11/22 05:22:17;;;;;;;1999.90;999.90;;;;;;;1.69;60.90;101582.47;4905610;28;97388;-75
2021/11/22 05:24:49;;;;;;;1999.90;999.90;;;;;;;1.68;61.06;101579.75;4903002;28;97341;-74
2021/11/22 05:27:18;;;;;;;1999.90;999.90;;;;;;;1.68;60.55;101591.16;4884918;28;100769;-76
2021/11/22 05:29:46;;;;;;;1999.90;999.90;;;;;;;1.68;61.29;101601.66;4880278;28;97113;-74
2021/11/22 05:32:17;;;;;;;1999.90;999.90;;;;;;;1.69;60.72;101605.22;4903576;28;97654;-75
2021/11/22 05:34:46;;;;;;;1999.90;999.90;;;;;;;1.71;60.66;101606.19;4900508;28;98374;-75
2021/11/22 05:37:15;;;;;;;1999.90;999.90;;;;;;;1.70;61.31;101610.56;4878430;28;98557;-76
2021/11/22 05:39:43;;;;;;;1999.90;999.90;;;;;;;1.70;61.08;101621.03;4884291;28;97365;-74
2021/11/22 05:42:13;;;;;;;1999.90;999.90;;;;;;;1.71;60.59;101619.31;4889271;28;97300;-74
2021/11/22 05:44:41;;;;;;;1999.90;999.90;;;;;;;1.71;60.88;101624.56;4903471;28;99914;-76
2021/11/22 05:47:11;;;;;;;1999.90;999.90;;;;;;;1.73;61.00;101625.56;4888032;28;97614;-77
2021/11/22 05:49:40;;;;;;;1999.90;999.90;;;;;;;1.70;61.13;101628.91;4883790;28;97447;-75
2021/11/22 05:52:10;;;;;;;1999.90;999.90;;;;;;;1.71;60.76;101637.66;4905882;28;98482;-76
2021/11/22 05:54:47;;;;;;;1999.90;999.90;;;;;;;1.70;60.97;101630.63;4905030;28;98791;-77
2021/11/22 05:57:16;;;;;;;1999.90;999.90;;;;;;;1.69;60.14;101642.81;4907856;28;98080;-76
2021/11/22 05:59:44;;;;;;;1999.90;999.90;;;;;;;1.70;61.09;101649.91;4907245;28;96812;-80
2021/11/22 06:02:13;;;;;;;1999.90;999.90;;;;;;;1.69;60.79;101648.06;4908594;28;97244;-74
2021/11/22 06:04:41;;;;;;;1999.90;999.90;;;;;;;1.68;60.76;101651.50;4889428;28;99763;-76
2021/11/22 06:07:10;;;;;;;1999.90;999.90;;;;;;;1.66;60.27;101653.09;4906262;28;98853;-77
2021/11/22 06:09:38;;;;;;;1999.90;999.90;;;;;;;1.66;60.77;101654.81;4889227;28;96957;-75
2021/11/22 06:12:07;;;;;;;1999.90;999.90;;;;;;;1.66;60.93;101667.94;4908212;28;97098;-75
2021/11/22 06:14:37;;;;;;;1999.90;999.90;;;;;;;1.63;60.63;101668.66;4906877;28;96713;-77
2021/11/22 06:17:06;;;;;;;1999.90;999.90;;;;;;;1.62;60.39;101672.06;4891417;28;98496;-75
2021/11/22 06:19:35;;;;;;;1999.90;999.90;;;;;;;1.61;60.40;101674.56;4908038;28;97773;-75
2021/11/22 06:22:04;;;;;;;1999.90;999.90;;;;;;;1.59;60.13;101678.78;4903938;28;96925;-78
2021/11/22 06:24:32;;;;;;;1999.90;999.90;;;;;;;1.55;60.34;101682.91;4928929;28;97576;-78
2021/11/22 06:27:02;;;;;;;1999.90;999.90;;;;;;;1.52;60.07;101693.19;4930955;28;97660;-76
2021/11/22 06:29:30;;;;;;;1999.90;999.90;;;;;;;1.46;60.72;101695.38;4926274;28;96759;-75
2021/11/22 06:32:00;;;;;;;1999.90;999.90;;;;;;;1.42;60.62;101701.19;4929047;28;98494;-73
2021/11/22 06:34:28;;;;;;;1999.90;999.90;;;;;;;1.41;60.31;101702.00;4926586;28;96448;-74
2021/11/22 06:36:56;;;;;;;1999.90;999.90;;;;;;;1.39;60.25;101714.09;4921992;28;97733;-74
2021/11/22 06:39:24;;;;;;;1999.90;999.90;;;;;;;1.71;59.25;101717.28;4918385;28;97611;-77
2021/11/22 06:41:53;;;;;;;1999.90;999.90;;;;;;;1.51;59.64;101724.53;4901142;28;97717;-73
2021/11/22 06:44:21;;;;;;;1999.90;999.90;;;;;;;1.44;59.57;101730.13;4906956;28;97930;-73
2021/11/22 06:46:49;;;;;;;1999.90;999.90;;;;;;;1.39;59.63;101740.31;4888980;28;97923;-72
2021/11/22 06:49:19;;;;;;;1999.90;999.90;;;;;;;1.36;59.80;101747.03;4889263;28;96998;-76
2021/11/22 06:51:48;;;;;;;1999.90;999.90;;;;;;;1.33;60.27;101750.34;4885543;28;98653;-78
2021/11/22 06:54:17;;;;;;;1999.90;999.90;;;;;;;1.27;60.21;101756.84;4904637;28;97848;-77
2021/11/22 06:56:45;;;;;;;1999.90;999.90;;;;;;;1.20;60.02;101755.47;4887626;28;100545;-75
2021/11/22 06:59:13;;;;;;;1999.90;999.90;;;;;;;1.17;60.36;101760.50;4887518;28;97920;-76
2021/11/22 07:01:42;;;;;;;1999.90;999.90;;;;;;;1.14;60.85;101765.53;4888619;28;97925;-78
2021/11/22 07:04:11;;;;;;;1999.90;999.90;;;;;;;1.13;60.38;101771.56;4904081;28;97869;-76
2021/11/22 07:06:40;;;;;;;1999.90;999.90;;;;;;;1.07;59.99;101774.63;4903825;28;98822;-76
2021/11/22 07:09:09;;;;;;;1999.90;999.90;;;;;;;1.02;60.08;101782.94;4888414;28;97261;-75
2021/11/22 07:11:37;;;;;;;1999.90;999.90;;;;;;;0.97;60.65;101782.63;4893650;28;97099;-76
2021/11/22 07:14:05;;;;;;;1999.90;999.90;;;;;;;0.95;60.40;101793.75;4906180;28;97985;-75
2021/11/22 07:16:34;;;;;;;1999.90;999.90;;;;;;;0.95;60.77;101793.75;4906489;28;98133;-76
2021/11/22 07:19:02;;;;;;;1999.90;999.90;;;;;;;0.95;60.92;101802.53;4898633;28;97250;-74
2021/11/22 07:21:30;;;;;;;1999.90;999.90;;;;;;;0.92;60.59;101812.78;4896626;28;97757;-76
2021/11/22 07:24:00;;;;;;;1999.90;999.90;;;;;;;0.91;60.09;101810.03;4907291;28;99157;-77
2021/11/22 07:26:28;;;;;;;1999.90;999.90;;;;;;;0.85;60.82;101813.09;4906629;28;98674;-75
2021/11/22 07:29:00;;;;;;;1999.90;999.90;;;;;;;0.83;60.88;101819.03;4906001;28;97226;-78
2021/11/22 07:31:28;;;;;;;1999.90;999.90;;;;;;;0.82;60.50;101817.19;4886407;28;96946;-77
2021/11/22 07:33:56;;;;;;;1999.90;999.90;;;;;;;0.81;60.69;101826.75;4880734;28;99177;-79
2021/11/22 07:36:25;;;;;;;1999.90;999.90;;;;;;;0.79;60.45;101822.22;4902863;28;97981;-76
2021/11/22 07:38:53;;;;;;;1999.90;999.90;;;;;;;0.79;60.40;101827.47;4903896;28;97224;-75
2021/11/22 07:41:23;;;;;;;1999.90;999.90;;;;;;;0.78;60.46;101831.78;4886609;28;97254;-77
2021/11/22 07:43:51;;;;;;;1999.90;999.90;;;;;;;0.76;60.85;101845.53;4895587;28;99280;-78
2021/11/22 07:46:19;;;;;;;1999.90;999.90;;;;;;;0.76;60.39;101850.78;4903701;28;97681;-79
2021/11/22 07:48:47;;;;;;;1999.90;999.90;;;;;;;0.75;60.22;101856.81;4904196;28;97474;-75
2021/11/22 07:51:15;;;;;;;1999.90;999.90;;;;;;;0.73;60.49;101868.88;4903382;28;96920;-76
2021/11/22 07:53:44;;;;;;;1999.90;999.90;;;;;;;0.71;60.51;101870.47;4902343;28;97684;-78
2021/11/22 07:56:12;;;;;;;1999.90;999.90;;;;;;;0.70;60.55;101873.91;4902751;28;97553;-76
2021/11/22 07:58:42;;;;;;;1999.90;999.90;;;;;;;0.66;59.97;101878.00;4903512;28;96851;-76
2021/11/22 08:01:10;;;;;;;1999.90;999.90;;;;;;;0.63;60.56;101887.31;4887426;28;96804;-76
2021/11/22 08:03:39;;;;;;;1999.90;999.90;;;;;;;0.63;60.45;101889.94;4898145;28;98069;-76
2021/11/22 08:06:07;;;;;;;1999.90;999.90;;;;;;;0.61;60.12;101888.91;4894594;28;101008;-76
2021/11/22 08:08:37;;;;;;;1999.90;999.90;;;;;;;0.54;60.50;101895.34;4886218;28;97356;-75
2021/11/22 08:11:17;;;;;;;1999.90;999.90;;;;;;;0.53;60.79;101896.16;4892902;28;97854;-77
2021/11/22 08:13:49;;;;;;;1999.90;999.90;;;;;;;0.51;60.27;101900.34;4903640;28;97721;-77
2021/11/22 08:16:17;;;;;;;1999.90;999.90;;;;;;;0.52;60.78;101903.91;4902932;28;99233;-78
2021/11/22 08:18:49;;;;;;;1999.90;999.90;;;;;;;0.52;60.64;101903.91;4903430;28;97491;-77
2021/11/22 08:21:17;;;;;;;1999.90;999.90;;;;;;;0.54;60.36;101912.78;4902991;28;97863;-77
2021/11/22 08:23:46;;;;;;;1999.90;999.90;;;;;;;0.52;60.12;101914.38;4902768;28;97754;-77
2021/11/22 08:26:14;;;;;;;1999.90;999.90;;;;;;;0.52;60.32;101919.59;4903173;28;98364;-77
2021/11/22 08:28:42;;;;;;;1999.90;999.90;;;;;;;0.53;60.20;101921.41;4903310;28;96944;-77
2021/11/22 08:31:12;;;;;;;1999.90;999.90;;;;;;;0.54;60.43;101933.75;4902889;28;97846;-76
2021/11/22 08:33:40;;;;;;;1999.90;999.90;;;;;;;0.57;60.44;101928.72;4902337;28;98741;-77
2021/11/22 08:36:08;;;;;;;1999.90;999.90;;;;;;;0.58;59.66;101930.53;4869701;28;99581;-79
2021/11/22 08:38:36;;;;;;;1999.90;999.90;;;;;;;0.57;59.91;101937.50;4887093;28;97578;-76
2021/11/22 08:41:05;;;;;;;1999.90;999.90;;;;;;;0.58;60.00;101933.16;4902860;28;97701;-78
2021/11/22 08:43:33;;;;;;;1999.90;999.90;;;;;;;0.60;60.08;101939.44;4889651;28;99298;-78
2021/11/22 08:46:01;;;;;;;1999.90;999.90;;;;;;;0.63;60.03;101942.31;4903249;28;98078;-76
2021/11/22 08:48:31;;;;;;;1999.90;999.90;;;;;;;0.64;59.94;101937.19;4903914;28;97814;-77
2021/11/22 08:50:59;;;;;;;1999.90;999.90;;;;;;;0.67;59.71;101940.03;4886866;28;97945;-77
2021/11/22 08:53:27;;;;;;;1999.90;999.90;;;;;;;0.69;59.98;101940.16;4905655;28;97886;-76
2021/11/22 08:55:55;;;;;;;1999.90;999.90;;;;;;;0.71;59.82;101946.44;4905328;28;98313;-77
2021/11/22 08:58:24;;;;;;;1999.90;999.90;;;;;;;0.75;59.53;101948.50;4889072;28;97526;-76
2021/11/22 09:00:52;;;;;;;1999.90;999.90;;;;;;;0.77;59.65;101955.72;4905584;28;97739;-77
2021/11/22 09:03:20;;;;;;;1999.90;999.90;;;;;;;0.80;60.08;101949.78;4888475;28;99257;-75
2021/11/22 09:05:50;;;;;;;1999.90;999.90;;;;;;;0.83;59.79;101950.03;4906053;28;98061;-80
2021/11/22 09:08:18;;;;;;;1999.90;999.90;;;;;;;0.86;59.80;101952.88;4905784;28;98137;-76
2021/11/22 09:10:46;;;;;;;1999.90;999.90;;;;;;;0.89;59.00;101958.38;4906021;28;97295;-77
2021/11/22 09:13:17;;;;;;;1999.90;999.90;;;;;;;0.89;59.00;101960.97;4888856;28;100229;-76
2021/11/22 09:15:45;;;;;;;1999.90;999.90;;;;;;;0.90;59.30;101968.06;4888747;28;99344;-77
2021/11/22 09:18:14;;;;;;;1999.90;999.90;;;;;;;0.91;59.57;101965.56;4895048;28;96812;-77
2021/11/22 09:20:42;;;;;;;1999.90;999.90;;;;;;;0.94;59.41;101965.78;4887424;28;97572;-75
2021/11/22 09:23:12;;;;;;;1999.90;999.90;;;;;;;0.96;59.50;101966.81;4887654;28;99965;-75
2021/11/22 09:25:40;;;;;;;1999.90;999.90;;;;;;;1.00;59.71;101965.34;4904988;28;98779;-76
2021/11/22 09:28:10;;;;;;;1999.90;999.90;;;;;;;1.01;59.04;101969.81;4905764;28;96795;-76
2021/11/22 09:30:38;;;;;;;1999.90;999.90;;;;;;;1.01;59.24;101968.09;4888463;28;97783;-78
2021/11/22 09:33:09;;;;;;;1999.90;999.90;;;;;;;1.04;59.44;101984.06;4900806;28;99603;-79
2021/11/22 09:35:38;;;;;;;1999.90;999.90;;;;;;;1.07;58.83;101981.69;4893358;28;102400;-76
2021/11/22 09:38:06;;;;;;;1999.90;999.90;;;;;;;1.10;59.40;101988.88;4904751;28;97902;-76
2021/11/22 09:40:40;;;;;;;1999.90;999.90;;;;;;;1.12;58.36;101987.31;4904798;28;97226;-78
2021/11/22 09:43:08;;;;;;;1999.90;999.90;;;;;;;1.12;58.71;101996.06;4904580;28;97954;-75
2021/11/22 09:45:36;;;;;;;1999.90;999.90;;;;;;;1.16;58.54;101992.88;4904766;28;97794;-77
2021/11/22 09:48:05;;;;;;;1999.90;999.90;;;;;;;1.11;58.64;102003.81;4887750;28;97139;-79
2021/11/22 09:50:33;;;;;;;1999.90;999.90;;;;;;;1.08;58.40;101996.63;4888315;28;98232;-77
2021/11/22 09:53:02;;;;;;;1999.90;999.90;;;;;;;1.11;58.61;101995.94;4905608;28;97766;-76
2021/11/22 09:55:31;;;;;;;1999.90;999.90;;;;;;;1.12;59.13;102008.28;4905896;28;97554;-78
2021/11/22 09:58:02;;;;;;;1999.90;999.90;;;;;;;1.16;58.79;102010.31;4905783;28;98615;-76
2021/11/22 10:00:35;;;;;;;1999.90;999.90;;;;;;;1.18;58.35;102009.66;4904756;28;97448;-77
2021/11/22 10:03:06;;;;;;;1999.90;999.90;;;;;;;1.21;58.44;102006.38;4894210;28;99727;-76
2021/11/22 10:05:36;;;;;;;1999.90;999.90;;;;;;;1.26;58.25;102006.72;4906096;28;98846;-76
2021/11/22 10:08:07;;;;;;;1999.90;999.90;;;;;;;1.27;58.79;102009.44;4880335;28;97794;-78
2021/11/22 10:10:38;;;;;;;1999.90;999.90;;;;;;;1.30;58.23;102004.47;4904531;28;97734;-77
2021/11/22 10:13:26;;;;;;;1999.90;999.90;;;;;;;1.31;58.19;102005.34;4904580;28;97939;-76
2021/11/22 10:15:56;;;;;;;1999.90;999.90;;;;;;;1.36;57.80;102006.63;4905539;28;98966;-74
2021/11/22 10:18:26;;;;;;;1999.90;999.90;;;;;;;1.38;58.16;102002.44;4880835;28;96846;-74
2021/11/22 10:20:55;;;;;;;1999.90;999.90;;;;;;;1.42;58.23;102001.84;4904355;28;97926;-74
2021/11/22 10:23:25;;;;;;;1999.90;999.90;;;;;;;1.45;58.44;101996.84;4891386;28;101469;-77
2021/11/22 10:25:54;;;;;;;1999.90;999.90;;;;;;;1.47;57.69;101998.78;4905601;28;97646;-77
2021/11/22 10:28:25;;;;;;;1999.90;999.90;;;;;;;1.47;58.40;101998.78;4906161;28;97199;-76
2021/11/22 10:30:55;;;;;;;1999.90;999.90;;;;;;;1.49;58.22;101999.81;4888822;28;97035;-77
2021/11/22 10:33:25;;;;;;;1999.90;999.90;;;;;;;1.52;57.58;102002.69;4896762;28;102741;-77
2021/11/22 10:35:55;;;;;;;1999.90;999.90;;;;;;;1.55;56.87;102000.28;4884830;28;99273;-79
2021/11/22 10:38:25;;;;;;;1999.90;999.90;;;;;;;1.45;57.35;102010.84;4888220;28;96784;-79
2021/11/22 10:40:57;;;;;;;1999.90;999.90;;;;;;;1.44;57.83;102011.66;4906578;28;96828;-79
2021/11/22 10:43:35;;;;;;;1999.90;999.90;;;;;;;1.45;57.28;102009.97;4906467;28;97658;-74
2021/11/22 10:46:05;;;;;;;1999.90;999.90;;;;;;;1.47;57.77;102008.38;4890047;28;99716;-76
2021/11/22 10:48:37;;;;;;;1999.90;999.90;;;;;;;1.50;57.73;102013.84;4907756;28;96931;-75
2021/11/22 10:51:13;;;;;;;1999.90;999.90;;;;;;;1.48;57.75;102016.38;4909325;28;96895;-76
2021/11/22 10:53:43;;;;;;;1999.90;999.90;;;;;;;1.50;57.26;102014.78;4907431;28;99416;-76
2021/11/22 10:56:15;;;;;;;1999.90;999.90;;;;;;;1.51;57.67;102024.47;4909284;28;98305;-77
2021/11/22 10:58:56;;;;;;;1999.90;999.90;;;;;;;1.51;57.55;102013.97;4912333;28;96738;-74
2021/11/22 11:01:44;;;;;;;1999.90;999.90;;;;;;;1.53;57.24;102020.25;4913452;28;96974;-76
2021/11/22 11:04:20;;;;;;;1999.90;999.90;;;;;;;1.56;57.00;102030.06;4913295;28;98105;-77
2021/11/22 11:06:54;;;;;;;1999.90;999.90;;;;;;;1.62;57.46;102020.03;4890333;28;98361;-76